createdAt,value
2022-10-01T00:00:10.773Z,11.60
2022-10-01T00:02:39.982Z,11.63
2022-10-01T00:05:11.441Z,11.13
2022-10-01T00:07:40.992Z,11.67
2022-10-01T00:10:14.003Z,11.63
2022-10-01T00:12:49.959Z,11.33
2022-10-01T00:15:19.704Z,11.80
2022-10-01T00:17:48.347Z,11.63
2022-10-01T00:20:17.057Z,11.47
2022-10-01T00:22:46.186Z,11.63
2022-10-01T00:25:16.088Z,11.53
2022-10-01T00:27:47.296Z,10.83
2022-10-01T00:30:15.965Z,11.87
2022-10-01T00:32:44.493Z,11.80
2022-10-01T00:35:14.503Z,11.90
2022-10-01T00:37:43.099Z,11.80
2022-10-01T00:40:12.040Z,11.83
2022-10-01T00:42:41.991Z,10.97
2022-10-01T00:45:13.493Z,11.30
2022-10-01T00:47:47.037Z,11.20
2022-10-01T00:50:23.486Z,11.50
2022-10-01T00:52:57.824Z,11.60
2022-10-01T00:55:30.021Z,11.20
2022-10-01T00:58:00.661Z,12.13
2022-10-01T01:00:29.264Z,11.23
2022-10-01T01:02:57.881Z,11.23
2022-10-01T01:05:26.852Z,11.10
2022-10-01T01:07:55.833Z,11.30
2022-10-01T01:10:35.616Z,11.73
2022-10-01T01:13:17.317Z,11.13
2022-10-01T01:15:55.484Z,11.83
2022-10-01T01:18:31.284Z,12.10
2022-10-01T01:21:22.878Z,11.40
2022-10-01T01:24:48.843Z,12.10
2022-10-01T01:27:38.843Z,11.90
2022-10-01T01:30:10.892Z,11.43
2022-10-01T01:32:47.706Z,11.33
2022-10-01T01:35:24.250Z,11.50
2022-10-01T01:37:57.920Z,11.30
2022-10-01T01:40:27.659Z,11.77
2022-10-01T01:42:58.012Z,11.23
2022-10-01T01:45:31.319Z,11.77
2022-10-01T01:48:02.723Z,12.07
2022-10-01T01:50:35.931Z,12.23
2022-10-01T01:53:04.436Z,11.90
2022-10-01T01:55:33.883Z,12.20
2022-10-01T01:58:02.674Z,12.17
2022-10-01T02:00:32.616Z,11.93
2022-10-01T02:03:01.506Z,11.80
2022-10-01T02:05:38.999Z,12.10
2022-10-01T02:08:39.287Z,13.70
2022-10-01T02:11:24.982Z,12.10
2022-10-01T02:14:19.763Z,11.97
2022-10-01T02:16:56.276Z,11.63
2022-10-01T02:19:34.705Z,12.00
2022-10-01T02:22:06.916Z,12.40
2022-10-01T02:24:42.859Z,12.10
2022-10-01T02:27:21.226Z,12.20
2022-10-01T02:29:52.536Z,11.90
2022-10-01T02:32:24.171Z,11.60
2022-10-01T02:34:55.831Z,11.20
2022-10-01T02:37:26.984Z,11.17
2022-10-01T02:39:57.784Z,11.83
2022-10-01T02:42:30.413Z,11.67
2022-10-01T02:45:02.822Z,11.07
2022-10-01T02:47:38.300Z,11.83
2022-10-01T02:50:09.898Z,12.13
2022-10-01T02:52:45.494Z,12.17
2022-10-01T02:55:18.901Z,11.47
2022-10-01T02:57:46.729Z,11.30
2022-10-01T03:00:21.414Z,11.43
2022-10-01T03:02:51.951Z,11.60
2022-10-01T03:05:21.256Z,12.30
2022-10-01T03:07:49.861Z,11.93
2022-10-01T03:10:18.714Z,12.00
2022-10-01T03:12:47.741Z,12.23
2022-10-01T03:15:19.310Z,12.60
2022-10-01T03:17:53.457Z,12.10
2022-10-01T03:20:22.973Z,11.80
2022-10-01T03:22:51.913Z,12.60
2022-10-01T03:25:20.502Z,11.73
2022-10-01T03:27:53.189Z,11.00
2022-10-01T03:30:22.186Z,12.17
2022-10-01T03:32:50.693Z,11.70
2022-10-01T03:35:20.658Z,12.30
2022-10-01T03:37:49.436Z,11.60
2022-10-01T03:40:18.036Z,12.10
2022-10-01T03:42:46.644Z,12.23
2022-10-01T03:45:15.369Z,12.20
2022-10-01T03:47:43.876Z,11.60
2022-10-01T03:50:12.476Z,11.60
2022-10-01T03:52:42.831Z,11.53
2022-10-01T03:55:11.552Z,11.10
2022-10-01T03:57:40.148Z,11.50
2022-10-01T04:00:12.066Z,11.13
2022-10-01T04:02:40.777Z,12.27
2022-10-01T04:05:10.360Z,11.63
2022-10-01T04:07:38.974Z,11.20
2022-10-01T04:10:10.603Z,11.90
2022-10-01T04:12:39.092Z,11.20
2022-10-01T04:15:08.980Z,11.30
2022-10-01T04:17:39.279Z,11.67
2022-10-01T04:20:09.833Z,11.40
2022-10-01T04:22:42.088Z,11.33
2022-10-01T04:25:13.113Z,12.43
2022-10-01T04:27:43.073Z,12.30
2022-10-01T04:30:12.496Z,11.80
2022-10-01T04:32:41.048Z,12.03
2022-10-01T04:35:11.710Z,11.90
2022-10-01T04:37:40.540Z,12.23
2022-10-01T04:40:12.086Z,11.80
2022-10-01T04:42:43.629Z,11.73
2022-10-01T04:45:13.614Z,11.53
2022-10-01T04:47:49.839Z,11.80
2022-10-01T04:50:19.617Z,11.73
2022-10-01T04:52:51.370Z,11.70
2022-10-01T04:55:22.929Z,12.10
2022-10-01T04:57:52.112Z,11.73
2022-10-01T05:00:24.516Z,11.73
2022-10-01T05:02:54.343Z,11.70
2022-10-01T05:05:27.307Z,12.10
2022-10-01T05:07:55.933Z,11.93
2022-10-01T05:10:26.331Z,11.60
2022-10-01T05:12:55.147Z,11.83
2022-10-01T05:15:23.902Z,12.00
2022-10-01T05:17:53.140Z,11.73
2022-10-01T05:20:24.411Z,11.53
2022-10-01T05:22:52.986Z,11.70
2022-10-01T05:25:22.314Z,10.90
2022-10-01T05:27:52.279Z,11.20
2022-10-01T05:30:24.498Z,11.53
2022-10-01T05:32:57.857Z,11.67
2022-10-01T05:35:26.780Z,11.60
2022-10-01T05:37:57.298Z,11.60
2022-10-01T05:40:28.802Z,11.93
2022-10-01T05:43:02.808Z,11.63
2022-10-01T05:45:32.607Z,12.67
2022-10-01T05:48:03.315Z,11.77
2022-10-01T05:50:35.001Z,11.87
2022-10-01T05:53:03.997Z,11.80
2022-10-01T05:55:34.535Z,11.73
2022-10-01T05:58:07.118Z,12.10
2022-10-01T06:00:36.405Z,11.60
2022-10-01T06:03:06.814Z,12.07
2022-10-01T06:05:37.745Z,11.43
2022-10-01T06:08:09.657Z,11.57
2022-10-01T06:10:38.981Z,12.10
2022-10-01T06:13:09.343Z,11.50
2022-10-01T06:15:40.333Z,12.10
2022-10-01T06:18:11.164Z,11.90
2022-10-01T06:20:40.811Z,11.80
2022-10-01T06:23:12.783Z,11.87
2022-10-01T06:25:42.828Z,11.77
2022-10-01T06:28:14.798Z,11.73
2022-10-01T06:30:43.816Z,11.67
2022-10-01T06:33:15.185Z,11.10
2022-10-01T06:35:46.977Z,12.07
2022-10-01T06:38:16.775Z,11.03
2022-10-01T06:40:45.855Z,11.10
2022-10-01T06:43:15.727Z,11.63
2022-10-01T06:45:44.332Z,11.20
2022-10-01T06:48:16.677Z,11.80
2022-10-01T06:51:06.108Z,11.70
2022-10-01T06:53:34.676Z,11.93
2022-10-01T06:56:07.242Z,11.83
2022-10-01T06:58:37.427Z,11.57
2022-10-01T07:01:06.092Z,11.73
2022-10-01T07:03:34.912Z,16.47
2022-10-01T07:06:08.020Z,11.40
2022-10-01T07:08:36.600Z,11.27
2022-10-01T07:11:05.348Z,11.67
2022-10-01T07:13:33.905Z,11.47
2022-10-01T07:16:06.117Z,11.50
2022-10-01T07:18:34.820Z,11.73
2022-10-01T07:21:03.403Z,10.70
2022-10-01T07:23:32.019Z,11.63
2022-10-01T07:26:00.525Z,11.40
2022-10-01T07:28:29.295Z,11.60
2022-10-01T07:31:05.095Z,11.77
2022-10-01T07:33:34.251Z,11.67
2022-10-01T07:36:04.329Z,11.57
2022-10-01T07:38:33.622Z,11.63
2022-10-01T07:41:03.534Z,11.13
2022-10-01T07:43:34.668Z,11.47
2022-10-01T07:46:05.214Z,10.97
2022-10-01T07:48:33.806Z,10.97
2022-10-01T07:51:02.314Z,11.30
2022-10-01T07:53:31.103Z,11.47
2022-10-01T07:56:02.566Z,10.93
2022-10-01T07:58:31.139Z,11.00
2022-10-01T08:01:00.696Z,11.00
2022-10-01T08:03:30.613Z,10.93
2022-10-01T08:05:59.312Z,11.07
2022-10-01T08:08:27.816Z,10.90
2022-10-01T08:10:56.319Z,11.40
2022-10-01T08:13:25.815Z,10.93
2022-10-01T08:15:55.036Z,10.40
2022-10-01T08:18:25.079Z,10.77
2022-10-01T08:20:55.099Z,10.60
2022-10-01T08:23:24.945Z,10.80
2022-10-01T08:25:53.493Z,11.10
2022-10-01T08:28:22.134Z,10.83
2022-10-01T08:30:50.690Z,10.60
2022-10-01T08:33:19.594Z,10.80
2022-10-01T08:35:48.087Z,11.13
2022-10-01T08:38:19.771Z,11.00
2022-10-01T08:40:50.738Z,10.70
2022-10-01T08:43:33.097Z,10.40
2022-10-01T08:46:05.332Z,10.70
2022-10-01T08:48:56.923Z,10.27
2022-10-01T08:51:33.441Z,10.90
2022-10-01T08:54:19.808Z,10.53
2022-10-01T08:56:49.011Z,10.33
2022-10-01T08:59:35.163Z,10.57
2022-10-01T09:02:03.879Z,10.40
2022-10-01T09:04:32.478Z,10.63
2022-10-01T09:07:24.682Z,10.23
2022-10-01T09:10:04.584Z,10.53
2022-10-01T09:12:42.417Z,10.27
2022-10-01T09:15:24.099Z,10.70
2022-10-01T09:18:08.954Z,10.07
2022-10-01T09:20:40.914Z,10.10
2022-10-01T09:23:21.253Z,10.23
2022-10-01T09:25:52.194Z,10.17
2022-10-01T09:28:23.788Z,10.53
2022-10-01T09:30:57.432Z,10.60
2022-10-01T09:33:31.676Z,10.13
2022-10-01T09:36:12.487Z,10.70
2022-10-01T09:38:43.204Z,10.23
2022-10-01T09:41:38.879Z,9.90
2022-10-01T09:44:18.709Z,10.77
2022-10-01T09:46:48.023Z,10.30
2022-10-01T09:49:28.672Z,10.30
2022-10-01T09:52:03.757Z,10.30
2022-10-01T09:54:36.581Z,10.10
2022-10-01T09:57:13.890Z,10.30
2022-10-01T09:59:49.650Z,10.23
2022-10-01T10:02:27.087Z,10.63
2022-10-01T10:05:02.789Z,10.30
2022-10-01T10:07:34.855Z,10.23
2022-10-01T10:10:24.603Z,10.03
2022-10-01T10:13:00.863Z,10.07
2022-10-01T10:15:31.372Z,10.43
2022-10-01T10:18:08.759Z,10.43
2022-10-01T10:20:41.940Z,22.33
2022-10-01T10:23:16.833Z,10.23
2022-10-01T10:25:45.579Z,10.13
2022-10-01T10:28:23.908Z,9.93
2022-10-01T10:30:55.436Z,10.03
2022-10-01T10:33:26.380Z,10.20
2022-10-01T10:36:01.461Z,10.00
2022-10-01T10:38:34.983Z,9.90
2022-10-01T10:41:06.275Z,10.60
2022-10-01T10:43:39.395Z,10.23
2022-10-01T10:46:09.745Z,10.03
2022-10-01T10:48:44.079Z,9.60
2022-10-01T10:51:12.591Z,10.30
2022-10-01T10:53:45.148Z,9.87
2022-10-01T10:56:23.041Z,9.77
2022-10-01T10:58:54.111Z,9.93
2022-10-01T11:01:29.971Z,9.53
2022-10-01T11:04:01.654Z,9.80
2022-10-01T11:06:30.366Z,9.80
2022-10-01T11:09:07.324Z,9.83
2022-10-01T11:11:51.914Z,9.83
2022-10-01T11:14:42.141Z,9.97
2022-10-01T11:17:52.176Z,10.23
2022-10-01T11:20:36.955Z,10.30
2022-10-01T11:23:40.341Z,10.10
2022-10-01T11:26:21.131Z,10.03
2022-10-01T11:29:04.856Z,10.23
2022-10-01T11:31:41.730Z,9.83
2022-10-01T11:34:37.501Z,10.27
2022-10-01T11:37:19.634Z,10.03
2022-10-01T11:39:52.993Z,9.53
2022-10-01T11:42:27.814Z,10.00
2022-10-01T11:45:04.458Z,9.83
2022-10-01T11:47:39.305Z,10.00
2022-10-01T11:50:17.209Z,10.13
2022-10-01T11:52:52.760Z,10.20
2022-10-01T11:55:44.043Z,9.60
2022-10-01T11:58:40.187Z,9.73
2022-10-01T12:01:15.225Z,9.97
2022-10-01T12:04:01.978Z,9.70
2022-10-01T12:06:36.993Z,10.40
2022-10-01T12:09:14.341Z,13.90
2022-10-01T12:11:52.781Z,9.70
2022-10-01T12:14:31.460Z,9.57
2022-10-01T12:17:12.227Z,9.67
2022-10-01T12:19:47.655Z,9.47
2022-10-01T12:22:24.582Z,9.93
2022-10-01T12:24:54.241Z,9.87
2022-10-01T12:27:49.099Z,9.67
2022-10-01T12:30:21.723Z,9.50
2022-10-01T12:33:16.612Z,9.43
2022-10-01T12:36:00.334Z,9.90
2022-10-01T12:38:48.020Z,10.20
2022-10-01T12:41:31.074Z,9.90
2022-10-01T12:44:19.221Z,9.70
2022-10-01T12:46:59.158Z,9.47
2022-10-01T12:49:36.148Z,10.00
2022-10-01T12:52:18.247Z,9.90
2022-10-01T12:55:01.032Z,9.70
2022-10-01T12:57:43.200Z,9.60
2022-10-01T13:00:18.092Z,9.53
2022-10-01T13:03:22.717Z,9.70
2022-10-01T13:06:14.143Z,9.60
2022-10-01T13:08:59.008Z,9.77
2022-10-01T13:11:55.283Z,9.50
2022-10-01T13:14:24.396Z,9.73
2022-10-01T13:17:02.651Z,9.67
2022-10-01T13:19:40.796Z,9.57
2022-10-01T13:22:19.156Z,9.50
2022-10-01T13:25:00.919Z,9.60
2022-10-01T13:27:38.522Z,9.40
2022-10-01T13:30:18.428Z,9.87
2022-10-01T13:32:53.445Z,9.90
2022-10-01T13:35:34.477Z,9.60
2022-10-01T13:38:15.139Z,9.77
2022-10-01T13:40:45.634Z,9.87
2022-10-01T13:43:19.353Z,9.90
2022-10-01T13:45:50.444Z,9.50
2022-10-01T13:48:23.473Z,9.70
2022-10-01T13:51:03.769Z,9.83
2022-10-01T13:53:36.452Z,9.70
2022-10-01T13:56:07.565Z,9.67
2022-10-01T13:58:40.861Z,9.60
2022-10-01T14:01:31.164Z,9.47
2022-10-01T14:04:10.857Z,9.90
2022-10-01T14:06:45.730Z,9.37
2022-10-01T14:09:18.293Z,10.10
2022-10-01T14:12:10.087Z,9.67
2022-10-01T14:14:59.230Z,9.80
2022-10-01T14:17:31.009Z,9.37
2022-10-01T14:20:01.391Z,9.37
2022-10-01T14:22:55.588Z,9.53
2022-10-01T14:25:42.872Z,9.70
2022-10-01T14:28:30.454Z,9.40
2022-10-01T14:31:10.324Z,9.30
2022-10-01T14:34:07.975Z,9.50
2022-10-01T14:36:42.732Z,9.70
2022-10-01T14:39:19.693Z,9.40
2022-10-01T14:41:50.379Z,9.87
2022-10-01T14:44:28.117Z,9.73
2022-10-01T14:46:59.303Z,10.07
2022-10-01T14:49:30.262Z,9.57
2022-10-01T14:52:03.000Z,9.70
2022-10-01T14:54:46.053Z,9.47
2022-10-01T14:57:22.946Z,9.40
2022-10-01T14:59:52.979Z,9.37
2022-10-01T15:02:24.250Z,9.50
2022-10-01T15:04:56.676Z,9.33
2022-10-01T15:07:26.509Z,9.50
2022-10-01T15:09:55.409Z,9.30
2022-10-01T15:12:25.068Z,9.57
2022-10-01T15:14:56.928Z,9.90
2022-10-01T15:17:28.228Z,9.43
2022-10-01T15:19:58.673Z,9.60
2022-10-01T15:22:31.184Z,9.37
2022-10-01T15:25:02.593Z,9.63
2022-10-01T15:27:31.826Z,9.60
2022-10-01T15:30:01.915Z,9.33
2022-10-01T15:32:30.777Z,9.50
2022-10-01T15:35:02.319Z,9.50
2022-10-01T15:37:35.742Z,9.47
2022-10-01T15:40:07.020Z,9.27
2022-10-01T15:42:37.458Z,9.50
2022-10-01T15:45:31.275Z,9.40
2022-10-01T15:48:00.116Z,9.73
2022-10-01T15:50:32.384Z,9.43
2022-10-01T15:53:06.945Z,9.40
2022-10-01T15:55:41.131Z,9.60
2022-10-01T15:58:17.111Z,9.50
2022-10-01T16:01:00.055Z,9.70
2022-10-01T16:03:34.430Z,9.50
2022-10-01T16:06:05.634Z,9.50
2022-10-01T16:08:39.386Z,9.50
2022-10-01T16:11:20.597Z,9.40
2022-10-01T16:13:50.791Z,9.50
2022-10-01T16:16:28.069Z,9.33
2022-10-01T16:19:00.932Z,9.70
2022-10-01T16:21:29.438Z,9.17
2022-10-01T16:23:58.152Z,9.33
2022-10-01T16:26:41.108Z,9.30
2022-10-01T16:29:24.627Z,9.20
2022-10-01T16:31:54.736Z,9.43
2022-10-01T16:34:48.704Z,9.23
2022-10-01T16:37:17.829Z,9.60
2022-10-01T16:39:46.469Z,9.30
2022-10-01T16:42:24.627Z,9.30
2022-10-01T16:44:53.514Z,9.60
2022-10-01T16:47:23.371Z,9.47
2022-10-01T16:49:53.154Z,9.50
2022-10-01T16:52:21.855Z,9.43
2022-10-01T16:54:50.471Z,9.53
2022-10-01T16:57:18.995Z,9.43
2022-10-01T16:59:47.577Z,10.43
2022-10-01T17:02:16.488Z,10.07
2022-10-01T17:04:46.437Z,10.00
2022-10-01T17:07:15.012Z,25.20
2022-10-01T17:09:43.512Z,61.63
2022-10-01T17:12:11.980Z,35.00
2022-10-01T17:14:40.702Z,86.20
2022-10-01T17:17:09.223Z,45.43
2022-10-01T17:19:37.737Z,52.97
2022-10-01T17:22:07.696Z,65.90
2022-10-01T17:24:36.221Z,68.20
2022-10-01T17:27:04.855Z,56.10
2022-10-01T17:29:33.620Z,55.40
2022-10-01T17:32:02.251Z,31.87
2022-10-01T17:34:30.831Z,25.00
2022-10-01T17:37:00.236Z,17.77
2022-10-01T17:39:30.720Z,13.80
2022-10-01T17:41:59.233Z,11.27
2022-10-01T17:44:27.916Z,11.07
2022-10-01T17:46:56.431Z,10.37
2022-10-01T17:49:24.997Z,10.23
2022-10-01T17:51:53.890Z,10.20
2022-10-01T17:54:22.465Z,10.30
2022-10-01T17:56:54.944Z,10.60
2022-10-01T17:59:23.572Z,10.20
2022-10-01T18:01:53.316Z,9.93
2022-10-01T18:04:21.897Z,9.87
2022-10-01T18:06:52.244Z,9.70
2022-10-01T18:09:21.615Z,10.03
2022-10-01T18:11:50.202Z,9.80
2022-10-01T18:14:20.636Z,9.73
2022-10-01T18:16:49.627Z,9.93
2022-10-01T18:24:56.331Z,9.40
2022-10-01T18:27:24.989Z,9.80
2022-10-01T18:29:54.836Z,9.77
2022-10-01T18:32:26.799Z,9.80
2022-10-01T18:34:59.040Z,9.87
2022-10-01T18:37:37.627Z,9.70
2022-10-01T18:40:14.048Z,9.60
2022-10-01T18:42:52.735Z,9.60
2022-10-01T18:45:42.178Z,10.00
2022-10-01T18:48:45.459Z,9.23
2022-10-01T18:51:24.700Z,9.63
2022-10-01T18:54:14.756Z,9.67
2022-10-01T18:56:53.957Z,9.60
2022-10-01T18:59:56.731Z,9.57
2022-10-01T19:02:55.458Z,9.37
2022-10-01T19:06:03.615Z,9.83
2022-10-01T19:08:58.301Z,9.53
2022-10-01T19:11:42.066Z,9.67
2022-10-01T19:14:32.284Z,9.60
2022-10-01T19:17:15.692Z,10.00
2022-10-01T19:20:01.840Z,9.90
2022-10-01T19:22:51.764Z,9.83
2022-10-01T19:25:27.209Z,9.60
2022-10-01T19:28:17.763Z,9.37
2022-10-01T19:31:00.950Z,9.73
2022-10-01T19:33:34.147Z,9.47
2022-10-01T19:36:06.768Z,9.60
2022-10-01T19:38:39.571Z,9.60
2022-10-01T19:41:22.640Z,9.73
2022-10-01T19:43:57.489Z,9.47
2022-10-01T19:46:36.242Z,9.33
2022-10-01T19:49:16.123Z,9.57
2022-10-01T19:51:57.071Z,9.40
2022-10-01T19:54:32.704Z,9.67
2022-10-01T19:57:07.593Z,9.50
2022-10-01T19:59:36.115Z,9.87
2022-10-01T20:02:15.192Z,9.43
2022-10-01T20:04:52.670Z,9.63
2022-10-01T20:07:29.303Z,9.37
2022-10-01T20:10:06.139Z,10.00
2022-10-01T20:12:43.644Z,9.70
2022-10-01T20:15:26.120Z,10.20
2022-10-01T20:18:13.137Z,9.60
2022-10-01T20:20:48.891Z,9.60
2022-10-01T20:23:40.301Z,10.03
2022-10-01T20:26:20.724Z,9.83
2022-10-01T20:29:13.953Z,9.63
2022-10-01T20:31:51.893Z,9.80
2022-10-01T20:34:32.737Z,9.80
2022-10-01T20:37:16.343Z,9.90
2022-10-01T20:39:52.734Z,9.47
2022-10-01T20:42:30.530Z,9.47
2022-10-01T20:45:00.574Z,9.80
2022-10-01T20:47:38.115Z,9.67
2022-10-01T20:50:14.276Z,9.63
2022-10-01T20:52:51.510Z,9.93
2022-10-01T20:55:26.701Z,9.40
2022-10-01T20:58:01.445Z,9.83
2022-10-01T21:00:31.159Z,9.90
2022-10-01T21:03:12.437Z,9.70
2022-10-01T21:05:44.587Z,10.10
2022-10-01T21:08:34.421Z,9.70
2022-10-01T21:11:09.295Z,9.73
2022-10-01T21:13:45.907Z,9.97
2022-10-01T21:16:38.448Z,9.60
2022-10-01T21:19:25.622Z,10.03
2022-10-01T21:22:07.613Z,9.80
2022-10-01T21:24:59.188Z,9.80
2022-10-01T21:27:55.739Z,9.60
2022-10-01T21:30:24.529Z,9.83
2022-10-01T21:33:20.536Z,9.70
2022-10-01T21:35:55.419Z,9.53
2022-10-01T21:38:32.731Z,9.57
2022-10-01T21:41:38.368Z,9.70
2022-10-01T21:44:50.383Z,10.00
2022-10-01T21:47:28.557Z,9.93
2022-10-01T21:50:09.771Z,9.60
2022-10-01T21:52:53.363Z,10.17
2022-10-01T21:55:40.688Z,9.70
2022-10-01T21:58:32.084Z,9.77
2022-10-01T22:01:15.962Z,10.70
2022-10-01T22:03:50.843Z,9.90
2022-10-01T22:06:28.980Z,9.97
2022-10-01T22:09:08.585Z,9.50
2022-10-01T22:11:42.338Z,10.37
2022-10-01T22:14:17.600Z,9.80
2022-10-01T22:16:54.917Z,10.10
2022-10-01T22:19:30.119Z,9.60
2022-10-01T22:22:06.270Z,9.57
2022-10-01T22:24:43.623Z,10.03
2022-10-01T22:27:17.936Z,9.97
2022-10-01T22:29:53.329Z,9.93
2022-10-01T22:32:28.216Z,10.53
2022-10-01T22:35:05.786Z,10.07
2022-10-01T22:37:42.646Z,9.83
2022-10-01T22:40:18.061Z,9.83
2022-10-01T22:43:05.611Z,9.57
2022-10-01T22:45:56.149Z,10.30
2022-10-01T22:48:45.612Z,9.50
2022-10-01T22:51:45.588Z,11.90
2022-10-01T22:54:32.519Z,9.87
2022-10-01T22:57:23.885Z,9.73
2022-10-01T23:00:03.329Z,9.73
2022-10-01T23:02:39.477Z,9.70
2022-10-01T23:05:36.031Z,10.13
2022-10-01T23:08:13.564Z,9.87
2022-10-01T23:10:56.148Z,10.20
2022-10-01T23:13:32.528Z,9.77
2022-10-01T23:16:10.181Z,10.00
2022-10-01T23:18:47.256Z,10.13
2022-10-01T23:21:32.745Z,9.70
2022-10-01T23:24:25.868Z,10.07
2022-10-01T23:27:07.828Z,9.60
2022-10-01T23:30:04.809Z,10.43
2022-10-01T23:33:03.716Z,10.37
2022-10-01T23:35:45.787Z,9.90
2022-10-01T23:38:49.624Z,10.07
2022-10-01T23:41:25.035Z,9.67
2022-10-01T23:43:54.874Z,10.10
2022-10-01T23:46:28.273Z,10.00
2022-10-01T23:49:01.447Z,12.80
2022-10-01T23:51:36.986Z,10.00
2022-10-01T23:54:18.844Z,9.53
2022-10-01T23:56:55.136Z,10.37
2022-10-01T23:59:30.305Z,9.70
